sensor_id;sensor_type;location;lat;lon;timestamp;temperature;humidity
52609;DHT22;38503;48.544;12.142;2022-11-12T00:00:55;4.70;99.90
52609;DHT22;38503;48.544;12.142;2022-11-12T00:03:24;4.80;99.90
52609;DHT22;38503;48.544;12.142;2022-11-12T00:05:51;4.80;99.90
52609;DHT22;38503;48.544;12.142;2022-11-12T00:08:19;4.80;99.90
52609;DHT22;38503;48.544;12.142;2022-11-12T00:10:46;4.80;99.90
52609;DHT22;38503;48.544;12.142;2022-11-12T00:13:14;4.80;99.90
52609;DHT22;38503;48.544;12.142;2022-11-12T00:15:41;4.80;99.90
52609;DHT22;38503;48.544;12.142;2022-11-12T00:18:08;4.60;99.90
52609;DHT22;38503;48.544;12.142;2022-11-12T00:20:35;4.70;99.90
52609;DHT22;38503;48.544;12.142;2022-11-12T00:23:02;4.70;99.90
52609;DHT22;38503;48.544;12.142;2022-11-12T00:25:29;4.70;99.90
52609;DHT22;38503;48.544;12.142;2022-11-12T00:28:06;4.70;99.90
52609;DHT22;38503;48.544;12.142;2022-11-12T00:30:35;4.90;99.90
52609;DHT22;38503;48.544;12.142;2022-11-12T00:33:04;4.90;99.90
52609;DHT22;38503;48.544;12.142;2022-11-12T00:35:31;4.70;99.90
52609;DHT22;38503;48.544;12.142;2022-11-12T00:37:59;4.70;99.90
52609;DHT22;38503;48.544;12.142;2022-11-12T00:40:27;4.80;99.90
52609;DHT22;38503;48.544;12.142;2022-11-12T00:42:54;4.80;99.90
52609;DHT22;38503;48.544;12.142;2022-11-12T00:45:22;4.80;99.90
52609;DHT22;38503;48.544;12.142;2022-11-12T00:47:49;4.70;99.90
52609;DHT22;38503;48.544;12.142;2022-11-12T00:50:16;4.70;99.90
52609;DHT22;38503;48.544;12.142;2022-11-12T00:52:42;4.50;99.90
52609;DHT22;38503;48.544;12.142;2022-11-12T00:55:10;4.40;99.90
52609;DHT22;38503;48.544;12.142;2022-11-12T00:57:36;4.50;99.90
52609;DHT22;38503;48.544;12.142;2022-11-12T01:00:05;4.50;99.90
52609;DHT22;38503;48.544;12.142;2022-11-12T01:02:33;4.50;99.90
52609;DHT22;38503;48.544;12.142;2022-11-12T01:05:09;4.40;99.90
52609;DHT22;38503;48.544;12.142;2022-11-12T01:07:36;4.40;99.90
52609;DHT22;38503;48.544;12.142;2022-11-12T01:10:04;4.40;99.90
52609;DHT22;38503;48.544;12.142;2022-11-12T01:12:31;4.70;99.90
52609;DHT22;38503;48.544;12.142;2022-11-12T01:14:58;4.60;99.90
52609;DHT22;38503;48.544;12.142;2022-11-12T01:17:25;4.50;99.90
52609;DHT22;38503;48.544;12.142;2022-11-12T01:19:52;4.40;99.90
52609;DHT22;38503;48.544;12.142;2022-11-12T01:22:19;4.30;99.90
52609;DHT22;38503;48.544;12.142;2022-11-12T01:24:45;4.30;99.90
52609;DHT22;38503;48.544;12.142;2022-11-12T01:27:12;4.70;99.90
52609;DHT22;38503;48.544;12.142;2022-11-12T01:29:39;4.50;99.90
52609;DHT22;38503;48.544;12.142;2022-11-12T01:32:07;4.40;99.90
52609;DHT22;38503;48.544;12.142;2022-11-12T01:34:33;4.30;99.90
52609;DHT22;38503;48.544;12.142;2022-11-12T01:37:00;4.30;99.90
52609;DHT22;38503;48.544;12.142;2022-11-12T01:39:27;4.30;99.90
52609;DHT22;38503;48.544;12.142;2022-11-12T01:41:54;4.40;99.90
52609;DHT22;38503;48.544;12.142;2022-11-12T01:44:23;4.30;99.90
52609;DHT22;38503;48.544;12.142;2022-11-12T01:49:42;4.20;99.90
52609;DHT22;38503;48.544;12.142;2022-11-12T01:52:32;4.20;99.90
52609;DHT22;38503;48.544;12.142;2022-11-12T01:55:04;4.20;99.90
52609;DHT22;38503;48.544;12.142;2022-11-12T01:57:37;4.30;99.90
52609;DHT22;38503;48.544;12.142;2022-11-12T02:00:09;4.30;99.90
52609;DHT22;38503;48.544;12.142;2022-11-12T02:02:37;4.30;99.90
52609;DHT22;38503;48.544;12.142;2022-11-12T02:05:09;4.30;99.90
52609;DHT22;38503;48.544;12.142;2022-11-12T02:07:39;4.30;99.90
52609;DHT22;38503;48.544;12.142;2022-11-12T02:10:07;4.40;99.90
52609;DHT22;38503;48.544;12.142;2022-11-12T02:12:35;4.40;99.90
52609;DHT22;38503;48.544;12.142;2022-11-12T02:15:21;4.40;99.90
52609;DHT22;38503;48.544;12.142;2022-11-12T02:17:47;4.40;99.90
52609;DHT22;38503;48.544;12.142;2022-11-12T02:20:15;4.40;99.90
52609;DHT22;38503;48.544;12.142;2022-11-12T02:22:44;4.30;99.90
52609;DHT22;38503;48.544;12.142;2022-11-12T02:25:18;4.30;99.90
52609;DHT22;38503;48.544;12.142;2022-11-12T02:27:47;4.20;99.90
52609;DHT22;38503;48.544;12.142;2022-11-12T02:30:29;4.20;99.90
52609;DHT22;38503;48.544;12.142;2022-11-12T02:32:56;4.20;99.90
52609;DHT22;38503;48.544;12.142;2022-11-12T02:35:24;4.40;99.90
52609;DHT22;38503;48.544;12.142;2022-11-12T02:37:51;4.50;99.90
52609;DHT22;38503;48.544;12.142;2022-11-12T02:40:17;4.40;99.90
52609;DHT22;38503;48.544;12.142;2022-11-12T02:42:44;4.40;99.90
52609;DHT22;38503;48.544;12.142;2022-11-12T02:45:11;4.40;99.90
52609;DHT22;38503;48.544;12.142;2022-11-12T02:47:38;4.40;99.90
52609;DHT22;38503;48.544;12.142;2022-11-12T02:50:06;4.30;99.90
52609;DHT22;38503;48.544;12.142;2022-11-12T02:52:33;4.50;99.90
52609;DHT22;38503;48.544;12.142;2022-11-12T02:55:00;4.50;99.90
52609;DHT22;38503;48.544;12.142;2022-11-12T02:57:27;4.30;99.90
52609;DHT22;38503;48.544;12.142;2022-11-12T02:59:55;4.30;99.90
52609;DHT22;38503;48.544;12.142;2022-11-12T03:02:22;4.20;99.90
52609;DHT22;38503;48.544;12.142;2022-11-12T03:04:49;4.50;99.90
52609;DHT22;38503;48.544;12.142;2022-11-12T03:07:16;4.50;99.90
52609;DHT22;38503;48.544;12.142;2022-11-12T03:09:43;4.40;99.90
52609;DHT22;38503;48.544;12.142;2022-11-12T03:12:12;4.20;99.90
52609;DHT22;38503;48.544;12.142;2022-11-12T03:14:39;4.10;99.90
52609;DHT22;38503;48.544;12.142;2022-11-12T03:17:05;4.10;99.90
52609;DHT22;38503;48.544;12.142;2022-11-12T03:19:32;4.00;99.90
52609;DHT22;38503;48.544;12.142;2022-11-12T03:21:59;4.00;99.90
52609;DHT22;38503;48.544;12.142;2022-11-12T03:24:26;3.90;99.90
52609;DHT22;38503;48.544;12.142;2022-11-12T03:26:53;3.90;99.90
52609;DHT22;38503;48.544;12.142;2022-11-12T03:29:20;3.90;99.90
52609;DHT22;38503;48.544;12.142;2022-11-12T03:31:47;3.80;99.90
52609;DHT22;38503;48.544;12.142;2022-11-12T03:34:14;3.90;99.90
52609;DHT22;38503;48.544;12.142;2022-11-12T03:36:41;3.90;99.90
52609;DHT22;38503;48.544;12.142;2022-11-12T03:39:07;3.90;99.90
52609;DHT22;38503;48.544;12.142;2022-11-12T03:41:34;3.90;99.90
52609;DHT22;38503;48.544;12.142;2022-11-12T03:44:01;3.90;99.90
52609;DHT22;38503;48.544;12.142;2022-11-12T03:46:28;3.90;99.90
52609;DHT22;38503;48.544;12.142;2022-11-12T03:48:55;3.90;99.90
52609;DHT22;38503;48.544;12.142;2022-11-12T03:51:22;3.90;99.90
52609;DHT22;38503;48.544;12.142;2022-11-12T03:53:49;3.90;99.90
52609;DHT22;38503;48.544;12.142;2022-11-12T03:56:16;3.80;99.90
52609;DHT22;38503;48.544;12.142;2022-11-12T03:58:42;3.80;99.90
52609;DHT22;38503;48.544;12.142;2022-11-12T04:01:09;3.80;99.90
52609;DHT22;38503;48.544;12.142;2022-11-12T04:03:36;3.80;99.90
52609;DHT22;38503;48.544;12.142;2022-11-12T04:06:03;3.80;99.90
52609;DHT22;38503;48.544;12.142;2022-11-12T04:08:48;3.80;99.90
52609;DHT22;38503;48.544;12.142;2022-11-12T04:11:16;3.80;99.90
52609;DHT22;38503;48.544;12.142;2022-11-12T04:13:43;3.70;99.90
52609;DHT22;38503;48.544;12.142;2022-11-12T04:16:18;3.80;99.90
52609;DHT22;38503;48.544;12.142;2022-11-12T04:19:05;3.70;99.90
52609;DHT22;38503;48.544;12.142;2022-11-12T04:21:59;3.70;99.90
52609;DHT22;38503;48.544;12.142;2022-11-12T04:25:01;3.70;99.90
52609;DHT22;38503;48.544;12.142;2022-11-12T04:27:39;3.80;99.90
52609;DHT22;38503;48.544;12.142;2022-11-12T04:30:08;3.80;99.90
52609;DHT22;38503;48.544;12.142;2022-11-12T04:32:51;3.80;99.90
52609;DHT22;38503;48.544;12.142;2022-11-12T04:35:21;3.80;99.90
52609;DHT22;38503;48.544;12.142;2022-11-12T04:37:49;3.80;99.90
52609;DHT22;38503;48.544;12.142;2022-11-12T04:40:17;3.90;99.90
52609;DHT22;38503;48.544;12.142;2022-11-12T04:43:04;3.80;99.90
52609;DHT22;38503;48.544;12.142;2022-11-12T04:45:52;3.80;99.90
52609;DHT22;38503;48.544;12.142;2022-11-12T04:48:21;3.90;99.90
52609;DHT22;38503;48.544;12.142;2022-11-12T04:51:00;3.90;99.90
52609;DHT22;38503;48.544;12.142;2022-11-12T04:53:28;4.00;99.90
52609;DHT22;38503;48.544;12.142;2022-11-12T04:55:57;4.00;99.90
52609;DHT22;38503;48.544;12.142;2022-11-12T04:58:24;4.00;99.90
52609;DHT22;38503;48.544;12.142;2022-11-12T05:00:51;3.90;99.90
52609;DHT22;38503;48.544;12.142;2022-11-12T05:03:19;3.80;99.90
52609;DHT22;38503;48.544;12.142;2022-11-12T05:05:46;3.80;99.90
52609;DHT22;38503;48.544;12.142;2022-11-12T05:08:12;3.80;99.90
52609;DHT22;38503;48.544;12.142;2022-11-12T05:10:39;3.60;99.90
52609;DHT22;38503;48.544;12.142;2022-11-12T05:13:06;3.60;99.90
52609;DHT22;38503;48.544;12.142;2022-11-12T05:15:33;3.60;99.90
52609;DHT22;38503;48.544;12.142;2022-11-12T05:18:00;3.70;99.90
52609;DHT22;38503;48.544;12.142;2022-11-12T05:20:26;3.70;99.90
52609;DHT22;38503;48.544;12.142;2022-11-12T05:22:53;3.80;99.90
52609;DHT22;38503;48.544;12.142;2022-11-12T05:25:34;3.90;99.90
52609;DHT22;38503;48.544;12.142;2022-11-12T05:28:01;3.90;99.90
52609;DHT22;38503;48.544;12.142;2022-11-12T05:30:27;3.90;99.90
52609;DHT22;38503;48.544;12.142;2022-11-12T05:32:54;3.90;99.90
52609;DHT22;38503;48.544;12.142;2022-11-12T05:35:21;3.90;99.90
52609;DHT22;38503;48.544;12.142;2022-11-12T05:37:48;4.20;99.90
52609;DHT22;38503;48.544;12.142;2022-11-12T05:40:15;4.20;99.90
52609;DHT22;38503;48.544;12.142;2022-11-12T05:42:43;4.10;99.90
52609;DHT22;38503;48.544;12.142;2022-11-12T05:45:12;3.90;99.90
52609;DHT22;38503;48.544;12.142;2022-11-12T05:47:39;4.10;99.90
52609;DHT22;38503;48.544;12.142;2022-11-12T05:50:06;4.00;99.90
52609;DHT22;38503;48.544;12.142;2022-11-12T05:52:33;3.80;99.90
52609;DHT22;38503;48.544;12.142;2022-11-12T05:55:00;3.80;99.90
52609;DHT22;38503;48.544;12.142;2022-11-12T05:57:27;3.80;99.90
52609;DHT22;38503;48.544;12.142;2022-11-12T05:59:54;3.80;99.90
52609;DHT22;38503;48.544;12.142;2022-11-12T06:02:21;4.00;99.90
52609;DHT22;38503;48.544;12.142;2022-11-12T06:04:48;4.00;99.90
52609;DHT22;38503;48.544;12.142;2022-11-12T06:07:14;3.90;99.90
52609;DHT22;38503;48.544;12.142;2022-11-12T06:09:41;3.90;99.90
52609;DHT22;38503;48.544;12.142;2022-11-12T06:12:08;3.90;99.90
52609;DHT22;38503;48.544;12.142;2022-11-12T06:14:35;3.80;99.90
52609;DHT22;38503;48.544;12.142;2022-11-12T06:17:02;3.70;99.90
52609;DHT22;38503;48.544;12.142;2022-11-12T06:19:29;3.80;99.90
52609;DHT22;38503;48.544;12.142;2022-11-12T06:21:56;3.90;99.90
52609;DHT22;38503;48.544;12.142;2022-11-12T06:24:23;3.80;99.90
52609;DHT22;38503;48.544;12.142;2022-11-12T06:26:50;3.80;99.90
52609;DHT22;38503;48.544;12.142;2022-11-12T06:29:17;3.80;99.90
52609;DHT22;38503;48.544;12.142;2022-11-12T06:31:44;3.80;99.90
52609;DHT22;38503;48.544;12.142;2022-11-12T06:34:11;3.70;99.90
52609;DHT22;38503;48.544;12.142;2022-11-12T06:36:38;3.60;99.90
52609;DHT22;38503;48.544;12.142;2022-11-12T06:39:05;3.70;99.90
52609;DHT22;38503;48.544;12.142;2022-11-12T06:41:32;3.70;99.90
52609;DHT22;38503;48.544;12.142;2022-11-12T06:43:59;3.70;99.90
52609;DHT22;38503;48.544;12.142;2022-11-12T06:46:26;3.60;99.90
52609;DHT22;38503;48.544;12.142;2022-11-12T06:48:52;3.60;99.90
52609;DHT22;38503;48.544;12.142;2022-11-12T06:51:20;3.50;99.90
52609;DHT22;38503;48.544;12.142;2022-11-12T06:53:47;3.50;99.90
52609;DHT22;38503;48.544;12.142;2022-11-12T06:56:15;3.60;99.90
52609;DHT22;38503;48.544;12.142;2022-11-12T06:58:42;3.60;99.90
52609;DHT22;38503;48.544;12.142;2022-11-12T07:01:11;3.60;99.90
52609;DHT22;38503;48.544;12.142;2022-11-12T07:03:40;3.60;99.90
52609;DHT22;38503;48.544;12.142;2022-11-12T07:06:14;3.60;99.90
52609;DHT22;38503;48.544;12.142;2022-11-12T07:08:47;3.60;99.90
52609;DHT22;38503;48.544;12.142;2022-11-12T07:11:18;3.70;99.90
52609;DHT22;38503;48.544;12.142;2022-11-12T07:13:46;3.70;99.90
52609;DHT22;38503;48.544;12.142;2022-11-12T07:16:14;3.60;99.90
52609;DHT22;38503;48.544;12.142;2022-11-12T07:18:48;3.70;99.90
52609;DHT22;38503;48.544;12.142;2022-11-12T07:21:17;3.70;99.90
52609;DHT22;38503;48.544;12.142;2022-11-12T07:23:46;3.60;99.90
52609;DHT22;38503;48.544;12.142;2022-11-12T07:26:18;3.70;99.90
52609;DHT22;38503;48.544;12.142;2022-11-12T07:28:46;3.70;99.90
52609;DHT22;38503;48.544;12.142;2022-11-12T07:31:14;3.80;99.90
52609;DHT22;38503;48.544;12.142;2022-11-12T07:33:42;3.30;99.90
52609;DHT22;38503;48.544;12.142;2022-11-12T07:36:12;3.60;99.90
52609;DHT22;38503;48.544;12.142;2022-11-12T07:38:40;3.60;99.90
52609;DHT22;38503;48.544;12.142;2022-11-12T07:41:14;3.60;99.90
52609;DHT22;38503;48.544;12.142;2022-11-12T07:43:45;3.70;99.90
52609;DHT22;38503;48.544;12.142;2022-11-12T07:48:45;3.80;99.90
52609;DHT22;38503;48.544;12.142;2022-11-12T07:53:40;3.90;99.90
52609;DHT22;38503;48.544;12.142;2022-11-12T07:56:12;3.90;99.90
52609;DHT22;38503;48.544;12.142;2022-11-12T07:58:40;3.80;99.90
52609;DHT22;38503;48.544;12.142;2022-11-12T08:03:35;3.90;99.90
52609;DHT22;38503;48.544;12.142;2022-11-12T08:06:02;4.00;99.90
52609;DHT22;38503;48.544;12.142;2022-11-12T08:08:29;4.10;99.90
52609;DHT22;38503;48.544;12.142;2022-11-12T08:10:57;4.20;99.90
52609;DHT22;38503;48.544;12.142;2022-11-12T08:13:24;4.30;99.90
52609;DHT22;38503;48.544;12.142;2022-11-12T08:15:51;4.20;99.90
52609;DHT22;38503;48.544;12.142;2022-11-12T08:18:21;4.20;99.90
52609;DHT22;38503;48.544;12.142;2022-11-12T08:20:48;4.20;99.90
52609;DHT22;38503;48.544;12.142;2022-11-12T08:23:15;4.30;99.90
52609;DHT22;38503;48.544;12.142;2022-11-12T08:25:42;4.30;99.90
52609;DHT22;38503;48.544;12.142;2022-11-12T08:28:09;4.30;99.90
52609;DHT22;38503;48.544;12.142;2022-11-12T08:30:36;4.30;99.90
52609;DHT22;38503;48.544;12.142;2022-11-12T08:33:04;4.20;99.90
52609;DHT22;38503;48.544;12.142;2022-11-12T08:35:32;4.10;99.90
52609;DHT22;38503;48.544;12.142;2022-11-12T08:37:59;4.10;99.90
52609;DHT22;38503;48.544;12.142;2022-11-12T08:40:28;4.10;99.90
52609;DHT22;38503;48.544;12.142;2022-11-12T08:42:56;4.10;99.90
52609;DHT22;38503;48.544;12.142;2022-11-12T08:45:24;4.20;99.90
52609;DHT22;38503;48.544;12.142;2022-11-12T08:47:51;4.20;99.90
52609;DHT22;38503;48.544;12.142;2022-11-12T08:50:18;4.20;99.90
52609;DHT22;38503;48.544;12.142;2022-11-12T08:52:45;4.30;99.90
52609;DHT22;38503;48.544;12.142;2022-11-12T08:55:12;4.40;99.90
52609;DHT22;38503;48.544;12.142;2022-11-12T08:57:43;4.40;99.90
52609;DHT22;38503;48.544;12.142;2022-11-12T09:00:12;4.50;99.90
52609;DHT22;38503;48.544;12.142;2022-11-12T09:02:39;4.60;99.90
52609;DHT22;38503;48.544;12.142;2022-11-12T09:05:06;4.50;99.90
52609;DHT22;38503;48.544;12.142;2022-11-12T09:07:33;4.60;99.90
52609;DHT22;38503;48.544;12.142;2022-11-12T09:10:16;4.60;99.90
52609;DHT22;38503;48.544;12.142;2022-11-12T09:12:43;4.60;99.90
52609;DHT22;38503;48.544;12.142;2022-11-12T09:15:10;4.60;99.90
52609;DHT22;38503;48.544;12.142;2022-11-12T09:17:59;4.70;99.90
52609;DHT22;38503;48.544;12.142;2022-11-12T09:20:27;4.70;99.90
52609;DHT22;38503;48.544;12.142;2022-11-12T09:22:59;4.80;99.90
52609;DHT22;38503;48.544;12.142;2022-11-12T09:25:26;4.70;99.90
52609;DHT22;38503;48.544;12.142;2022-11-12T09:27:54;4.90;99.90
52609;DHT22;38503;48.544;12.142;2022-11-12T09:30:21;4.90;99.90
52609;DHT22;38503;48.544;12.142;2022-11-12T09:32:48;5.00;99.90
52609;DHT22;38503;48.544;12.142;2022-11-12T09:35:15;5.10;99.90
52609;DHT22;38503;48.544;12.142;2022-11-12T09:37:41;5.00;99.90
52609;DHT22;38503;48.544;12.142;2022-11-12T09:40:15;5.10;99.90
52609;DHT22;38503;48.544;12.142;2022-11-12T09:42:46;5.30;99.90
52609;DHT22;38503;48.544;12.142;2022-11-12T09:45:37;5.40;99.90
52609;DHT22;38503;48.544;12.142;2022-11-12T09:48:08;5.40;99.90
52609;DHT22;38503;48.544;12.142;2022-11-12T09:50:39;5.50;99.90
52609;DHT22;38503;48.544;12.142;2022-11-12T09:53:18;5.60;99.90
52609;DHT22;38503;48.544;12.142;2022-11-12T09:55:48;5.70;99.90
52609;DHT22;38503;48.544;12.142;2022-11-12T09:58:17;5.60;99.90
52609;DHT22;38503;48.544;12.142;2022-11-12T10:00:54;5.80;99.90
52609;DHT22;38503;48.544;12.142;2022-11-12T10:06:22;6.00;99.90
52609;DHT22;38503;48.544;12.142;2022-11-12T10:09:12;6.10;99.90
52609;DHT22;38503;48.544;12.142;2022-11-12T10:12:01;6.20;99.90
52609;DHT22;38503;48.544;12.142;2022-11-12T10:17:57;6.00;99.90
52609;DHT22;38503;48.544;12.142;2022-11-12T10:20:37;6.10;99.90
52609;DHT22;38503;48.544;12.142;2022-11-12T10:23:21;6.20;99.90
52609;DHT22;38503;48.544;12.142;2022-11-12T10:25:54;6.00;99.90
52609;DHT22;38503;48.544;12.142;2022-11-12T10:30:53;5.80;99.90
52609;DHT22;38503;48.544;12.142;2022-11-12T10:33:21;5.50;99.90
52609;DHT22;38503;48.544;12.142;2022-11-12T10:35:48;5.50;99.90
52609;DHT22;38503;48.544;12.142;2022-11-12T10:38:21;5.70;99.90
52609;DHT22;38503;48.544;12.142;2022-11-12T10:40:48;5.80;99.90
52609;DHT22;38503;48.544;12.142;2022-11-12T10:45:46;5.90;99.90
52609;DHT22;38503;48.544;12.142;2022-11-12T10:48:28;5.70;99.90
52609;DHT22;38503;48.544;12.142;2022-11-12T10:50:58;6.00;99.90
52609;DHT22;38503;48.544;12.142;2022-11-12T10:53:39;6.20;99.90
52609;DHT22;38503;48.544;12.142;2022-11-12T10:56:28;6.30;99.90
52609;DHT22;38503;48.544;12.142;2022-11-12T10:59:22;6.20;99.90
52609;DHT22;38503;48.544;12.142;2022-11-12T11:01:58;6.00;99.90
52609;DHT22;38503;48.544;12.142;2022-11-12T11:04:33;5.90;99.90
52609;DHT22;38503;48.544;12.142;2022-11-12T11:07:21;6.10;99.90
52609;DHT22;38503;48.544;12.142;2022-11-12T11:09:58;5.90;99.90
52609;DHT22;38503;48.544;12.142;2022-11-12T11:12:33;6.10;99.90
52609;DHT22;38503;48.544;12.142;2022-11-12T11:15:19;6.30;99.90
52609;DHT22;38503;48.544;12.142;2022-11-12T11:17:46;6.50;99.90
52609;DHT22;38503;48.544;12.142;2022-11-12T11:20:16;6.80;99.90
52609;DHT22;38503;48.544;12.142;2022-11-12T11:22:56;6.70;99.90
52609;DHT22;38503;48.544;12.142;2022-11-12T11:25:26;6.30;99.90
52609;DHT22;38503;48.544;12.142;2022-11-12T11:30:53;6.30;99.90
52609;DHT22;38503;48.544;12.142;2022-11-12T11:39:00;6.30;99.90
52609;DHT22;38503;48.544;12.142;2022-11-12T11:41:47;6.50;99.90
52609;DHT22;38503;48.544;12.142;2022-11-12T11:47:18;6.70;99.90
52609;DHT22;38503;48.544;12.142;2022-11-12T11:55:37;6.70;99.90
52609;DHT22;38503;48.544;12.142;2022-11-12T11:58:12;6.60;99.90
52609;DHT22;38503;48.544;12.142;2022-11-12T12:01:07;6.70;99.90
52609;DHT22;38503;48.544;12.142;2022-11-12T12:12:20;7.00;99.90
52609;DHT22;38503;48.544;12.142;2022-11-12T12:17:57;7.10;99.90
52609;DHT22;38503;48.544;12.142;2022-11-12T12:20:47;7.10;99.90
52609;DHT22;38503;48.544;12.142;2022-11-12T12:26:11;7.40;99.90
52609;DHT22;38503;48.544;12.142;2022-11-12T12:28:51;7.50;99.90
52609;DHT22;38503;48.544;12.142;2022-11-12T12:31:23;7.40;99.90
52609;DHT22;38503;48.544;12.142;2022-11-12T12:34:03;7.50;99.90
52609;DHT22;38503;48.544;12.142;2022-11-12T12:36:39;7.30;99.90
52609;DHT22;38503;48.544;12.142;2022-11-12T12:42:11;7.40;99.90
52609;DHT22;38503;48.544;12.142;2022-11-12T12:44:44;7.50;99.90
52609;DHT22;38503;48.544;12.142;2022-11-12T12:47:36;7.60;99.90
52609;DHT22;38503;48.544;12.142;2022-11-12T12:50:12;7.70;99.90
52609;DHT22;38503;48.544;12.142;2022-11-12T12:55:49;7.80;99.90
52609;DHT22;38503;48.544;12.142;2022-11-12T12:58:24;7.60;99.90
52609;DHT22;38503;48.544;12.142;2022-11-12T13:01:02;7.50;99.90
52609;DHT22;38503;48.544;12.142;2022-11-12T13:17:08;7.20;99.90
52609;DHT22;38503;48.544;12.142;2022-11-12T13:35:29;7.00;99.90
52609;DHT22;38503;48.544;12.142;2022-11-12T13:48:46;6.80;99.90
52609;DHT22;38503;48.544;12.142;2022-11-12T13:53:46;6.60;99.90
52609;DHT22;38503;48.544;12.142;2022-11-12T13:56:27;6.60;99.90
52609;DHT22;38503;48.544;12.142;2022-11-12T13:58:55;6.50;99.90
52609;DHT22;38503;48.544;12.142;2022-11-12T14:01:33;6.60;99.90
52609;DHT22;38503;48.544;12.142;2022-11-12T14:04:00;6.50;99.90
52609;DHT22;38503;48.544;12.142;2022-11-12T14:12:10;6.40;99.90
52609;DHT22;38503;48.544;12.142;2022-11-12T14:15:01;6.30;99.90
52609;DHT22;38503;48.544;12.142;2022-11-12T14:17:45;6.30;99.90
52609;DHT22;38503;48.544;12.142;2022-11-12T14:20:35;6.20;99.90
52609;DHT22;38503;48.544;12.142;2022-11-12T14:23:17;6.20;99.90
52609;DHT22;38503;48.544;12.142;2022-11-12T14:28:36;6.30;99.90
52609;DHT22;38503;48.544;12.142;2022-11-12T14:31:14;6.10;99.90
52609;DHT22;38503;48.544;12.142;2022-11-12T14:33:48;5.90;99.90
52609;DHT22;38503;48.544;12.142;2022-11-12T14:36:16;5.80;99.90
52609;DHT22;38503;48.544;12.142;2022-11-12T14:38:50;5.70;99.90
52609;DHT22;38503;48.544;12.142;2022-11-12T14:41:22;5.90;99.90
52609;DHT22;38503;48.544;12.142;2022-11-12T14:43:52;6.00;99.90
52609;DHT22;38503;48.544;12.142;2022-11-12T14:46:51;5.80;99.90
52609;DHT22;38503;48.544;12.142;2022-11-12T14:49:32;5.90;99.90
52609;DHT22;38503;48.544;12.142;2022-11-12T14:52:10;6.00;99.90
52609;DHT22;38503;48.544;12.142;2022-11-12T14:54:49;5.80;99.90
52609;DHT22;38503;48.544;12.142;2022-11-12T14:57:22;5.70;99.90
52609;DHT22;38503;48.544;12.142;2022-11-12T14:59:50;5.70;99.90
52609;DHT22;38503;48.544;12.142;2022-11-12T15:02:26;5.60;99.90
52609;DHT22;38503;48.544;12.142;2022-11-12T15:05:17;5.50;99.90
52609;DHT22;38503;48.544;12.142;2022-11-12T15:07:57;5.50;99.90
52609;DHT22;38503;48.544;12.142;2022-11-12T15:10:42;5.30;99.90
52609;DHT22;38503;48.544;12.142;2022-11-12T15:15:38;5.30;99.90
52609;DHT22;38503;48.544;12.142;2022-11-12T15:18:20;5.30;99.90
52609;DHT22;38503;48.544;12.142;2022-11-12T15:21:14;5.20;99.90
52609;DHT22;38503;48.544;12.142;2022-11-12T15:23:52;5.10;99.90
52609;DHT22;38503;48.544;12.142;2022-11-12T15:31:57;5.10;99.90
52609;DHT22;38503;48.544;12.142;2022-11-12T15:34:31;5.10;99.90
52609;DHT22;38503;48.544;12.142;2022-11-12T15:37:03;5.10;99.90
52609;DHT22;38503;48.544;12.142;2022-11-12T15:39:33;5.10;99.90
52609;DHT22;38503;48.544;12.142;2022-11-12T15:42:04;5.20;99.90
52609;DHT22;38503;48.544;12.142;2022-11-12T15:44:34;5.20;99.90
52609;DHT22;38503;48.544;12.142;2022-11-12T15:47:02;5.20;99.90
52609;DHT22;38503;48.544;12.142;2022-11-12T15:49:29;5.20;99.90
52609;DHT22;38503;48.544;12.142;2022-11-12T15:51:56;5.20;99.90
52609;DHT22;38503;48.544;12.142;2022-11-12T15:54:23;5.20;99.90
52609;DHT22;38503;48.544;12.142;2022-11-12T15:56:50;5.10;99.90
52609;DHT22;38503;48.544;12.142;2022-11-12T15:59:17;5.20;99.90
52609;DHT22;38503;48.544;12.142;2022-11-12T16:01:44;5.20;99.90
52609;DHT22;38503;48.544;12.142;2022-11-12T16:04:12;5.10;99.90
52609;DHT22;38503;48.544;12.142;2022-11-12T16:06:39;5.10;99.90
52609;DHT22;38503;48.544;12.142;2022-11-12T16:09:06;5.00;99.90
52609;DHT22;38503;48.544;12.142;2022-11-12T16:11:33;5.00;99.90
52609;DHT22;38503;48.544;12.142;2022-11-12T16:14:04;5.00;99.90
52609;DHT22;38503;48.544;12.142;2022-11-12T16:16:32;4.90;99.90
52609;DHT22;38503;48.544;12.142;2022-11-12T16:19:00;5.00;99.90
52609;DHT22;38503;48.544;12.142;2022-11-12T16:21:27;4.90;99.90
52609;DHT22;38503;48.544;12.142;2022-11-12T16:23:54;5.00;99.90
52609;DHT22;38503;48.544;12.142;2022-11-12T16:26:27;5.00;99.90
52609;DHT22;38503;48.544;12.142;2022-11-12T16:28:54;4.90;99.90
52609;DHT22;38503;48.544;12.142;2022-11-12T16:31:23;4.90;99.90
52609;DHT22;38503;48.544;12.142;2022-11-12T16:33:50;4.90;99.90
52609;DHT22;38503;48.544;12.142;2022-11-12T16:36:16;5.10;99.90
52609;DHT22;38503;48.544;12.142;2022-11-12T16:38:44;5.00;99.90
52609;DHT22;38503;48.544;12.142;2022-11-12T16:41:13;5.00;99.90
52609;DHT22;38503;48.544;12.142;2022-11-12T16:43:40;4.80;99.90
52609;DHT22;38503;48.544;12.142;2022-11-12T16:46:26;4.90;99.90
52609;DHT22;38503;48.544;12.142;2022-11-12T16:48:54;4.90;99.90
52609;DHT22;38503;48.544;12.142;2022-11-12T16:51:21;4.80;99.90
52609;DHT22;38503;48.544;12.142;2022-11-12T16:53:48;4.80;99.90
52609;DHT22;38503;48.544;12.142;2022-11-12T16:56:18;4.80;99.90
52609;DHT22;38503;48.544;12.142;2022-11-12T16:58:46;4.80;99.90
52609;DHT22;38503;48.544;12.142;2022-11-12T17:01:26;4.90;99.90
52609;DHT22;38503;48.544;12.142;2022-11-12T17:03:55;4.90;99.90
52609;DHT22;38503;48.544;12.142;2022-11-12T17:06:30;4.90;99.90
52609;DHT22;38503;48.544;12.142;2022-11-12T17:08:57;4.90;99.90
52609;DHT22;38503;48.544;12.142;2022-11-12T17:11:24;4.90;99.90
52609;DHT22;38503;48.544;12.142;2022-11-12T17:13:51;4.70;99.90
52609;DHT22;38503;48.544;12.142;2022-11-12T17:16:18;4.70;99.90
52609;DHT22;38503;48.544;12.142;2022-11-12T17:18:45;4.60;99.90
52609;DHT22;38503;48.544;12.142;2022-11-12T17:21:16;4.60;99.90
52609;DHT22;38503;48.544;12.142;2022-11-12T17:23:44;4.60;99.90
52609;DHT22;38503;48.544;12.142;2022-11-12T17:26:13;4.60;99.90
52609;DHT22;38503;48.544;12.142;2022-11-12T17:28:40;4.70;99.90
52609;DHT22;38503;48.544;12.142;2022-11-12T17:33:48;4.70;99.90
52609;DHT22;38503;48.544;12.142;2022-11-12T17:36:17;4.70;99.90
52609;DHT22;38503;48.544;12.142;2022-11-12T17:38:45;4.60;99.90
52609;DHT22;38503;48.544;12.142;2022-11-12T17:41:12;4.70;99.90
52609;DHT22;38503;48.544;12.142;2022-11-12T17:43:39;4.70;99.90
52609;DHT22;38503;48.544;12.142;2022-11-12T17:46:08;5.00;99.90
52609;DHT22;38503;48.544;12.142;2022-11-12T17:48:36;5.00;99.90
52609;DHT22;38503;48.544;12.142;2022-11-12T17:51:06;4.90;99.90
52609;DHT22;38503;48.544;12.142;2022-11-12T17:53:34;4.90;99.90